Toledo, Iowa
Current Conditions -  °F | °C
As of 2:53 AM on Wednesday 22 Oct 2014 (Local Time) from KMIW Reporting Station
Clear Clear  
Wind Chill: 36°   Ceiling: Unl
Heat Index: 42°   Visibility: 10mi
Dew Point: 38°   Wind: 12mph
Humidity: 85%   Direction: 130°SE
Pressure: 30.22"   Gusts: NA
Location:  42°N, 92.58°W
Report Text: KMIW 220753Z AUTO 13010KT 10SM CLR 06/03 A3022 RMK AO2 SLP235 T00560033
Loading
Personal Weather Stations






























Interactive Weather Map New forecast layout! Learn more

10-Day Weather Forecast

Advertisements
Track Severe Weather on mobile